Time;durP1;ratioP1;P1;durP2;ratioP2;P2;SDS_P1;SDS_P2;PMS_P1;PMS_P2;Temp;Humidity;BMP_temperature;BMP_pressure;BME280_temperature;BME280_humidity;BME280_pressure;Samples;Min_cycle;Max_cycle;Signal;HPM_P1;HPM_P2
2022/11/11 00:01:03;;;;;;;2.17;1.60;;;;;;;9.82;93.07;96390.59;5113209;28;20446;-53
2022/11/11 00:03:31;;;;;;;1.10;1.10;;;;;;;9.62;92.08;96382.28;5112813;28;20429;-53
2022/11/11 00:06:02;;;;;;;1.93;1.83;;;;;;;9.51;93.93;96365.41;5113621;28;20457;-53
2022/11/11 00:08:32;;;;;;;1.80;1.30;;;;;;;10.02;89.23;96401.53;5113727;28;20467;-53
2022/11/11 00:11:02;;;;;;;1.13;1.03;;;;;;;10.22;87.72;96342.81;5113941;28;20443;-53
2022/11/11 00:13:32;;;;;;;1.43;1.33;;;;;;;10.18;87.07;96400.78;5113697;28;20423;-53
2022/11/11 00:16:05;;;;;;;0.93;0.93;;;;;;;10.09;84.88;96333.31;5113432;28;20821;-54
2022/11/11 00:27:05;;;;;;;0.80;0.70;;;;;;;10.29;91.69;96375.28;5113288;28;20858;-53
2022/11/11 00:29:34;;;;;;;1.93;1.83;;;;;;;10.41;87.70;96378.63;5113486;28;20433;-53
2022/11/11 00:37:38;;;;;;;0.70;0.70;;;;;;;9.72;93.65;96368.44;5112880;28;20436;-54
2022/11/11 00:40:09;;;;;;;2.80;1.20;;;;;;;10.25;90.02;96363.53;5112853;28;20432;-54
2022/11/11 00:42:38;;;;;;;0.60;0.60;;;;;;;10.23;85.25;96310.00;5113357;28;20451;-54
2022/11/11 00:45:08;;;;;;;0.90;0.90;;;;;;;10.28;84.23;96272.97;5111069;28;20428;-54
2022/11/11 00:53:11;;;;;;;0.43;0.40;;;;;;;10.63;84.31;96370.72;5105737;28;20439;-55
2022/11/11 00:55:41;;;;;;;0.77;0.57;;;;;;;10.84;82.75;96360.19;5111982;28;20428;-54
2022/11/11 00:58:09;;;;;;;5.57;0.80;;;;;;;9.82;82.75;96210.56;5113340;28;20415;-54
2022/11/11 01:00:38;;;;;;;0.80;0.80;;;;;;;10.91;80.82;96367.13;5113052;28;20443;-54
2022/11/11 01:03:06;;;;;;;0.93;0.93;;;;;;;10.37;80.48;96300.69;5113234;28;20431;-54
2022/11/11 01:05:34;;;;;;;0.40;0.30;;;;;;;11.00;79.94;96358.53;5112751;28;20464;-54
2022/11/11 01:08:03;;;;;;;0.43;0.40;;;;;;;10.80;79.50;96364.34;5112661;28;20482;-54
2022/11/11 01:10:40;;;;;;;1.10;1.07;;;;;;;10.03;81.55;96309.66;5112647;28;20439;-54
2022/11/11 01:13:19;;;;;;;0.70;0.70;;;;;;;10.43;82.56;96360.63;5112737;28;20432;-54
2022/11/11 01:15:50;;;;;;;0.60;0.50;;;;;;;10.50;81.74;96363.91;5112938;28;20994;-54
2022/11/11 01:18:20;;;;;;;0.93;0.87;;;;;;;10.45;81.41;96373.66;5111879;28;20435;-54
2022/11/11 01:20:58;;;;;;;0.50;0.50;;;;;;;10.01;81.97;96309.91;5112616;28;20427;-54
2022/11/11 01:23:27;;;;;;;0.83;0.83;;;;;;;10.43;81.46;96358.00;5112730;28;20495;-54
2022/11/11 01:25:55;;;;;;;0.70;0.70;;;;;;;10.43;81.89;96362.47;5112502;28;20483;-54
2022/11/11 01:28:25;;;;;;;0.70;0.60;;;;;;;10.45;81.31;96361.19;5112339;28;20459;-53
2022/11/11 01:30:54;;;;;;;2.80;1.40;;;;;;;10.50;81.46;96361.28;5112402;28;20451;-53
2022/11/11 01:33:22;;;;;;;1.20;1.20;;;;;;;9.90;80.12;96281.66;5112446;28;20502;-53
2022/11/11 01:35:50;;;;;;;0.40;0.30;;;;;;;10.27;80.84;96339.47;5112539;28;20506;-53
2022/11/11 01:38:19;;;;;;;0.47;0.40;;;;;;;10.27;80.52;96350.06;5110843;28;20467;-53
2022/11/11 01:40:49;;;;;;;0.50;0.50;;;;;;;10.35;80.77;96347.78;5110778;28;20971;-53
2022/11/11 01:43:22;;;;;;;0.87;0.87;;;;;;;10.13;80.23;96337.13;5111592;28;20504;-53
2022/11/11 01:45:58;;;;;;;0.67;0.67;;;;;;;9.75;79.68;96254.13;5111995;28;20423;-53
2022/11/11 01:51:27;;;;;;;1.17;1.10;;;;;;;10.34;79.09;96351.50;5112144;28;20436;-53
2022/11/11 01:54:00;;;;;;;0.40;0.30;;;;;;;10.10;79.56;96350.00;5112038;28;20431;-53
2022/11/11 01:56:29;;;;;;;1.40;1.30;;;;;;;10.14;79.47;96354.63;5112372;28;20440;-53
2022/11/11 01:59:02;;;;;;;1.13;0.70;;;;;;;9.86;79.27;96332.69;5111936;28;20470;-54
2022/11/11 02:01:32;;;;;;;0.50;0.50;;;;;;;9.55;80.80;96363.91;5111078;28;20940;-53
2022/11/11 02:06:48;;;;;;;0.40;0.40;;;;;;;8.49;94.42;96365.41;5080392;28;20439;-53
2022/11/11 02:09:17;;;;;;;2.60;0.87;;;;;;;8.29;98.74;96353.38;5111769;28;20487;-53
2022/11/11 02:14:38;;;;;;;1.60;0.70;;;;;;;8.44;90.96;96371.41;5110952;28;20435;-53
2022/11/11 02:17:12;;;;;;;0.80;0.80;;;;;;;8.39;89.48;96378.41;5111378;28;20423;-53
2022/11/11 02:19:47;;;;;;;2.80;0.97;;;;;;;8.31;88.51;96376.91;5110908;28;20958;-54
2022/11/11 02:22:23;;;;;;;1.47;1.37;;;;;;;8.23;87.70;96348.16;5110643;28;20974;-53
2022/11/11 02:24:54;;;;;;;1.77;1.67;;;;;;;8.61;86.76;96387.34;5111690;28;20481;-53
2022/11/11 02:27:24;;;;;;;0.60;0.50;;;;;;;8.54;86.82;96384.84;5111219;28;20480;-53
2022/11/11 02:29:55;;;;;;;1.73;1.63;;;;;;;8.32;87.15;96389.09;5113938;28;20427;-54
2022/11/11 02:32:24;;;;;;;2.43;0.80;;;;;;;8.13;88.51;96364.56;5114841;28;20823;-54
2022/11/11 02:34:52;;;;;;;0.50;0.40;;;;;;;8.24;89.62;96378.81;5115618;28;20431;-54
2022/11/11 02:37:24;;;;;;;5.17;1.40;;;;;;;8.28;87.83;96357.03;5115658;28;20420;-53
2022/11/11 02:40:00;;;;;;;1.10;1.10;;;;;;;8.30;87.65;96360.25;5115525;28;20464;-53
2022/11/11 02:42:35;;;;;;;1.47;1.37;;;;;;;8.39;89.31;96389.78;5115957;28;20535;-53
2022/11/11 02:45:04;;;;;;;0.40;0.40;;;;;;;8.53;88.93;96383.22;5114448;28;20923;-53
2022/11/11 02:47:32;;;;;;;1.77;1.67;;;;;;;8.59;87.76;96382.31;5115079;28;20936;-53
2022/11/11 02:50:01;;;;;;;0.60;0.40;;;;;;;8.60;87.85;96385.75;5115826;27;20430;-54
2022/11/11 02:52:29;;;;;;;0.40;0.30;;;;;;;8.50;89.26;96386.31;5115751;28;20511;-53
2022/11/11 02:54:59;;;;;;;0.40;0.40;;;;;;;8.58;89.19;96391.25;5115308;28;20432;-53
2022/11/11 02:57:28;;;;;;;2.00;0.47;;;;;;;8.65;87.72;96381.38;5113499;28;20431;-53
2022/11/11 02:59:59;;;;;;;1.33;1.33;;;;;;;8.67;86.87;96400.47;5113973;28;20424;-53
2022/11/11 03:02:29;;;;;;;0.40;0.40;;;;;;;8.44;87.94;96389.88;5113942;28;20440;-53
2022/11/11 03:04:58;;;;;;;0.40;0.40;;;;;;;8.13;89.63;96383.03;5114619;28;20427;-53
2022/11/11 03:07:26;;;;;;;0.40;0.30;;;;;;;8.24;91.67;96399.94;5114049;28;20424;-53
2022/11/11 03:09:54;;;;;;;0.60;0.60;;;;;;;6.12;98.38;96182.63;5114466;28;20500;-53
2022/11/11 03:12:24;;;;;;;1.80;1.07;;;;;;;8.01;96.80;96403.34;5114590;28;20464;-53
2022/11/11 03:14:55;;;;;;;0.40;0.33;;;;;;;7.63;100.00;96397.63;5114564;27;20428;-54
2022/11/11 03:17:38;;;;;;;1.47;1.00;;;;;;;8.06;98.16;96400.84;5114898;28;20431;-54
2022/11/11 03:23:01;;;;;;;0.73;0.73;;;;;;;7.82;94.58;96350.88;5113479;28;20427;-54
2022/11/11 03:25:39;;;;;;;0.40;0.40;;;;;;;8.21;93.04;96408.31;5114790;28;20431;-54
2022/11/11 03:28:10;;;;;;;1.00;0.97;;;;;;;7.70;97.78;96403.59;5114419;28;20510;-54
2022/11/11 03:30:40;;;;;;;0.60;0.60;;;;;;;7.86;97.00;96410.06;5114534;28;20438;-54
2022/11/11 03:33:09;;;;;;;2.00;0.70;;;;;;;7.98;94.86;96406.44;5114687;28;20457;-54
2022/11/11 03:35:38;;;;;;;0.40;0.40;;;;;;;7.46;98.53;96386.09;5114523;28;20428;-54
2022/11/11 03:38:22;;;;;;;4.53;0.77;;;;;;;7.67;98.19;96410.13;5113708;28;20779;-54
2022/11/11 03:40:53;;;;;;;1.57;1.13;;;;;;;7.11;98.88;96314.72;5111769;28;20439;-54
2022/11/11 03:43:24;;;;;;;0.70;0.70;;;;;;;8.00;94.91;96411.47;5112531;28;20454;-54
2022/11/11 03:45:55;;;;;;;1.10;0.70;;;;;;;7.93;94.64;96410.78;5113135;28;20428;-54
2022/11/11 03:48:24;;;;;;;2.50;1.00;;;;;;;7.83;94.20;96418.44;5114117;28;20467;-54
2022/11/11 03:50:52;;;;;;;0.80;0.80;;;;;;;7.39;95.00;96380.88;5114424;28;20454;-54
2022/11/11 03:53:22;;;;;;;0.60;0.60;;;;;;;7.62;95.53;96410.00;5114016;28;20497;-54
2022/11/11 03:55:51;;;;;;;0.73;0.73;;;;;;;7.21;99.20;96406.50;5112773;28;20431;-54
2022/11/11 03:58:20;;;;;;;0.90;0.90;;;;;;;7.03;100.00;96404.66;5112020;28;20822;-54
2022/11/11 04:00:49;;;;;;;0.50;0.40;;;;;;;6.76;98.99;96351.44;5111738;27;20443;-54
2022/11/11 04:11:41;;;;;;;0.50;0.50;;;;;;;7.49;94.29;96412.00;5113874;28;20438;-54
2022/11/11 04:16:58;;;;;;;0.40;0.30;;;;;;;7.61;93.49;96416.28;5113707;28;20431;-54
2022/11/11 04:22:12;;;;;;;0.40;0.40;;;;;;;7.48;93.11;96427.03;5112549;28;20438;-54
2022/11/11 04:27:26;;;;;;;0.73;0.73;;;;;;;6.77;97.51;96416.28;5112786;28;20467;-53
2022/11/11 04:29:53;;;;;;;0.50;0.50;;;;;;;6.67;99.09;96426.53;5113222;27;20838;-53
2022/11/11 04:32:37;;;;;;;0.97;0.87;;;;;;;6.58;100.00;96435.72;5113317;28;20428;-54
2022/11/11 04:35:08;;;;;;;1.77;1.70;;;;;;;6.79;100.00;96429.25;5112179;28;20431;-53
2022/11/11 04:37:44;;;;;;;3.00;1.30;;;;;;;7.06;95.26;96438.47;5112795;28;20458;-54
2022/11/11 04:43:10;;;;;;;3.13;2.93;;;;;;;6.78;95.12;96435.56;5049784;28;20443;-53
2022/11/11 04:45:37;;;;;;;1.67;1.57;;;;;;;7.19;93.70;96446.25;5098359;28;20428;-53
2022/11/11 04:48:09;;;;;;;0.80;0.60;;;;;;;6.97;93.83;96447.72;5112156;27;20428;-53
2022/11/11 04:50:39;;;;;;;0.73;0.73;;;;;;;7.06;92.92;96458.78;5112242;28;20554;-53
2022/11/11 04:53:09;;;;;;;0.83;0.83;;;;;;;6.49;96.33;96447.56;5111052;28;20443;-54
2022/11/11 04:58:25;;;;;;;1.10;0.90;;;;;;;6.53;97.55;96450.56;5111796;28;20428;-54
2022/11/11 05:00:53;;;;;;;0.83;0.83;;;;;;;6.37;99.23;96452.69;5112441;28;20435;-53
2022/11/11 05:03:22;;;;;;;2.70;2.50;;;;;;;6.17;95.71;96382.81;5112660;28;20497;-53
2022/11/11 05:08:58;;;;;;;1.23;1.17;;;;;;;6.42;93.56;96427.56;5112007;28;20432;-54
2022/11/11 05:11:28;;;;;;;2.77;1.83;;;;;;;6.59;94.05;96468.94;5112611;28;20835;-54
2022/11/11 05:22:35;;;;;;;0.80;0.60;;;;;;;6.75;94.87;96478.13;5099649;28;20958;-53
2022/11/11 05:28:01;;;;;;;1.13;1.07;;;;;;;6.73;94.71;96480.97;5069066;28;20453;-53
2022/11/11 05:30:29;;;;;;;2.00;1.63;;;;;;;6.59;93.95;96457.59;5102049;28;20483;-53
2022/11/11 05:32:58;;;;;;;2.43;2.13;;;;;;;6.24;96.17;96463.34;5112032;28;20913;-53
2022/11/11 05:35:27;;;;;;;1.23;1.23;;;;;;;6.31;99.26;96490.44;5111947;28;20518;-54
2022/11/11 05:38:20;;;;;;;2.47;2.37;;;;;;;6.34;99.86;96494.47;5111752;28;20430;-53
2022/11/11 05:40:48;;;;;;;3.07;2.90;;;;;;;6.77;97.13;96499.78;5111813;28;20432;-54
2022/11/11 05:43:16;;;;;;;3.73;2.53;;;;;;;6.35;97.70;96491.59;5111924;28;20819;-53
2022/11/11 05:45:45;;;;;;;3.20;1.50;;;;;;;6.35;100.00;96510.03;5111163;28;20979;-53
2022/11/11 05:48:13;;;;;;;1.30;1.20;;;;;;;6.80;100.00;96502.00;5111766;28;20947;-53
2022/11/11 05:50:43;;;;;;;2.10;1.73;;;;;;;6.83;100.00;96505.00;5111928;28;20467;-53
2022/11/11 05:53:11;;;;;;;1.50;1.40;;;;;;;7.21;98.67;96502.19;5111630;28;20428;-54
2022/11/11 05:55:39;;;;;;;0.93;0.93;;;;;;;7.67;93.89;96497.19;5111684;28;20443;-53
2022/11/11 05:58:07;;;;;;;0.80;0.80;;;;;;;7.62;92.87;96493.63;5111812;28;20423;-53
2022/11/11 06:00:35;;;;;;;1.97;1.77;;;;;;;7.85;91.37;96499.00;5111693;28;20932;-53
2022/11/11 06:03:04;;;;;;;1.80;1.80;;;;;;;8.29;88.32;96505.75;5111878;28;20833;-53
2022/11/11 06:05:33;;;;;;;2.07;0.77;;;;;;;7.78;88.38;96492.19;5115951;28;20436;-53
2022/11/11 06:08:02;;;;;;;4.47;1.97;;;;;;;6.90;94.82;96518.13;5116184;28;20428;-53
2022/11/11 06:10:30;;;;;;;2.23;0.80;;;;;;;7.11;98.13;96522.19;5115892;28;20467;-53
2022/11/11 06:13:04;;;;;;;1.20;1.10;;;;;;;7.10;95.20;96479.19;5115845;27;20939;-53
2022/11/11 06:15:33;;;;;;;0.90;0.90;;;;;;;7.50;94.15;96517.31;5115887;27;20428;-52
2022/11/11 06:18:02;;;;;;;1.53;1.43;;;;;;;6.00;93.70;96334.38;5116112;28;20446;-53
2022/11/11 06:20:30;;;;;;;15.33;2.73;;;;;;;7.13;94.46;96483.22;5115665;27;20428;-53
2022/11/11 06:22:58;;;;;;;0.80;0.80;;;;;;;7.19;95.81;96530.63;5115730;28;20943;-52
2022/11/11 06:28:16;;;;;;;0.77;0.77;;;;;;;7.73;93.19;96542.22;5115396;28;20439;-52
2022/11/11 06:30:45;;;;;;;0.73;0.60;;;;;;;8.01;91.71;96518.72;5115310;28;20471;-52
2022/11/11 06:33:17;;;;;;;0.80;0.80;;;;;;;8.82;88.22;96540.09;5115141;28;20430;-52
2022/11/11 06:35:46;;;;;;;0.43;0.40;;;;;;;9.22;85.57;96601.06;5115444;28;20435;-53
2022/11/11 06:38:14;;;;;;;2.53;2.43;;;;;;;9.47;84.66;96546.06;5115405;28;20427;-53
2022/11/11 06:40:45;;;;;;;1.63;1.53;;;;;;;9.99;80.36;96523.84;5115857;28;20432;-55
2022/11/11 06:43:13;;;;;;;0.70;0.70;;;;;;;10.49;78.89;96544.41;5115383;28;20914;-55
2022/11/11 06:45:41;;;;;;;1.03;0.93;;;;;;;10.89;76.39;96541.63;5115643;28;20791;-53
2022/11/11 06:48:10;;;;;;;2.10;2.00;;;;;;;11.36;73.23;96524.31;5115415;27;20427;-54
2022/11/11 06:50:38;;;;;;;0.50;0.50;;;;;;;11.81;71.67;96537.44;5114867;28;20477;-54
2022/11/11 06:53:07;;;;;;;0.80;0.63;;;;;;;12.04;71.08;96537.97;5114965;28;20424;-54
2022/11/11 06:55:35;;;;;;;2.93;2.57;;;;;;;12.35;68.26;96533.78;5114747;28;20473;-54
2022/11/11 06:58:09;;;;;;;4.17;1.63;;;;;;;12.57;67.81;96539.09;5115429;28;20430;-54
2022/11/11 07:00:38;;;;;;;3.97;1.50;;;;;;;12.22;68.31;96481.03;5115188;28;20429;-54
2022/11/11 07:03:08;;;;;;;2.73;2.63;;;;;;;12.83;67.08;96551.53;5114224;28;20441;-55
2022/11/11 07:05:36;;;;;;;3.70;3.00;;;;;;;12.58;67.15;96553.97;5113913;27;20807;-55
2022/11/11 07:08:07;;;;;;;1.43;1.13;;;;;;;12.93;66.68;96553.50;5115119;28;20442;-55
2022/11/11 07:10:37;;;;;;;3.57;1.00;;;;;;;13.36;65.17;96551.47;5114683;27;20474;-56
2022/11/11 07:13:06;;;;;;;1.10;0.87;;;;;;;13.84;64.78;96537.06;5114769;28;20423;-56
2022/11/11 07:15:35;;;;;;;1.70;1.60;;;;;;;13.90;63.05;96546.72;5113021;28;20424;-57
2022/11/11 07:18:04;;;;;;;4.43;3.87;;;;;;;14.05;61.64;96515.84;5114534;28;20451;-58
2022/11/11 07:20:33;;;;;;;3.47;3.27;;;;;;;14.00;60.45;96453.44;5114443;28;20425;-60
2022/11/11 07:23:01;;;;;;;9.93;3.07;;;;;;;14.12;60.83;96530.53;5114565;28;20433;-59
2022/11/11 07:25:29;;;;;;;3.67;3.37;;;;;;;13.65;61.43;96530.59;5114307;28;20445;-60
2022/11/11 07:27:57;;;;;;;1.33;1.33;;;;;;;13.81;61.78;96524.25;5113939;28;20996;-58
2022/11/11 07:30:27;;;;;;;6.07;5.40;;;;;;;14.16;60.69;96517.47;5114186;28;20467;-59
2022/11/11 07:32:59;;;;;;;2.87;2.67;;;;;;;14.59;58.75;96467.19;5114097;28;20422;-63
2022/11/11 07:35:27;;;;;;;5.00;3.40;;;;;;;14.75;58.70;96505.34;5114058;28;20929;-63
2022/11/11 07:37:55;;;;;;;3.90;3.20;;;;;;;15.21;57.91;96492.78;5114217;28;20427;-57
2022/11/11 07:40:23;;;;;;;5.40;4.20;;;;;;;15.63;56.65;96503.94;5114568;28;20428;-52
2022/11/11 07:42:52;;;;;;;4.90;4.47;;;;;;;15.79;55.93;96494.78;5114548;28;20422;-52
2022/11/11 07:45:20;;;;;;;4.60;3.57;;;;;;;15.97;56.24;96498.72;5114190;28;20854;-52
2022/11/11 07:47:48;;;;;;;22.97;4.23;;;;;;;14.93;57.19;96502.13;5114188;28;20422;-52
2022/11/11 07:50:18;;;;;;;3.57;2.80;;;;;;;15.55;65.67;96503.69;5113659;28;20483;-47
2022/11/11 07:52:49;;;;;;;6.50;4.40;;;;;;;14.42;59.22;96503.19;5113885;28;20434;-52
2022/11/11 07:55:18;;;;;;;2.83;2.63;;;;;;;14.69;59.51;96498.41;5113856;28;20463;-52
2022/11/11 07:57:46;;;;;;;2.20;2.00;;;;;;;13.96;60.70;96511.00;5113639;28;20428;-53
2022/11/11 08:00:15;;;;;;;1.50;1.40;;;;;;;13.50;61.74;96509.22;5113836;28;20458;-54
2022/11/11 08:02:47;;;;;;;0.93;0.93;;;;;;;14.16;61.07;96485.47;5113587;28;20427;-54
2022/11/11 08:05:15;;;;;;;1.00;1.00;;;;;;;14.57;60.70;96506.66;5113589;28;20443;-53
2022/11/11 08:07:45;;;;;;;0.90;0.60;;;;;;;15.80;59.35;96500.94;5113057;28;20930;-54
2022/11/11 08:10:13;;;;;;;1.23;1.13;;;;;;;16.11;56.47;96501.63;5113344;28;20787;-54
2022/11/11 08:15:27;;;;;;;0.70;0.60;;;;;;;14.78;58.39;96496.00;5113523;28;20437;-54
2022/11/11 08:17:55;;;;;;;7.03;2.73;;;;;;;14.30;60.49;96499.91;5113213;28;20429;-54
2022/11/11 08:20:24;;;;;;;1.13;1.13;;;;;;;14.57;58.04;96487.97;5112780;28;21163;-56
2022/11/11 08:22:55;;;;;;;0.97;0.97;;;;;;;14.55;58.23;96462.63;5113528;28;20438;-55
2022/11/11 08:25:45;;;;;;;1.47;1.37;;;;;;;14.65;58.53;96485.88;5112840;28;20465;-55
2022/11/11 08:28:13;;;;;;;0.83;0.83;;;;;;;13.91;60.98;96488.88;5112155;28;20934;-55
2022/11/11 08:30:41;;;;;;;0.80;0.80;;;;;;;14.63;58.51;96481.59;5112995;27;20470;-56
2022/11/11 08:33:10;;;;;;;2.30;0.40;;;;;;;14.70;59.28;96486.66;5113469;28;20782;-55
2022/11/11 08:36:00;;;;;;;1.70;1.60;;;;;;;15.07;57.45;96486.38;5112893;28;20429;-55
2022/11/11 08:38:29;;;;;;;0.70;0.70;;;;;;;15.42;56.87;96488.19;5113025;28;20448;-56
2022/11/11 08:41:00;;;;;;;0.73;0.73;;;;;;;15.66;56.08;96473.97;5112760;28;20468;-55
2022/11/11 08:43:31;;;;;;;0.93;0.93;;;;;;;14.63;58.04;96475.44;5112641;28;20431;-54
2022/11/11 08:46:04;;;;;;;1.40;1.30;;;;;;;14.78;57.87;96447.94;5112919;28;20785;-56
2022/11/11 08:48:33;;;;;;;0.70;0.70;;;;;;;15.15;56.51;96473.28;5112763;28;20475;-56
2022/11/11 08:51:01;;;;;;;1.90;0.73;;;;;;;15.15;55.94;96421.75;5112540;28;20471;-56
2022/11/11 08:53:31;;;;;;;0.70;0.70;;;;;;;15.36;55.97;96451.88;5112705;28;20485;-56
2022/11/11 08:56:01;;;;;;;0.83;0.83;;;;;;;15.72;56.63;96472.09;5111592;28;20879;-56
2022/11/11 08:58:31;;;;;;;1.00;1.00;;;;;;;15.50;56.67;96474.31;5112542;28;20422;-56
2022/11/11 09:01:00;;;;;;;1.20;1.20;;;;;;;14.94;57.34;96477.06;5112529;28;20457;-56
2022/11/11 09:03:29;;;;;;;1.93;1.67;;;;;;;14.85;58.60;96477.88;5112718;28;20566;-56
2022/11/11 09:05:57;;;;;;;2.10;2.00;;;;;;;14.85;58.10;96473.31;5112425;27;20434;-56
2022/11/11 09:08:25;;;;;;;4.77;0.80;;;;;;;14.92;58.33;96481.88;5112640;28;20426;-56
2022/11/11 09:10:57;;;;;;;1.90;0.70;;;;;;;14.98;58.12;96464.75;5112037;28;20429;-55
2022/11/11 09:13:25;;;;;;;1.87;1.77;;;;;;;14.76;57.78;96442.09;5112788;28;20464;-55
2022/11/11 09:15:54;;;;;;;0.93;0.90;;;;;;;14.70;58.16;96430.59;5112942;28;20434;-55
2022/11/11 09:18:23;;;;;;;1.67;1.57;;;;;;;14.72;58.29;96465.84;5112469;28;20425;-54
2022/11/11 09:20:51;;;;;;;1.47;1.43;;;;;;;14.81;58.41;96474.91;5112477;28;20437;-54
2022/11/11 09:23:19;;;;;;;1.37;0.77;;;;;;;14.92;58.38;96487.22;5112108;28;20893;-54
2022/11/11 09:25:47;;;;;;;0.70;0.70;;;;;;;14.92;57.80;96471.19;5112199;28;20937;-54
2022/11/11 09:28:17;;;;;;;2.83;2.30;;;;;;;15.41;57.14;96460.66;5112356;28;20434;-54
2022/11/11 09:30:45;;;;;;;1.50;1.40;;;;;;;15.84;56.19;96457.34;5112627;28;20437;-55
2022/11/11 09:33:15;;;;;;;2.83;2.63;;;;;;;15.59;56.43;96446.75;5112161;28;20473;-55
2022/11/11 09:35:43;;;;;;;1.83;1.70;;;;;;;15.67;56.30;96448.88;5112050;28;20434;-55
2022/11/11 09:38:11;;;;;;;1.30;1.20;;;;;;;16.01;55.78;96392.84;5110914;28;20434;-55
2022/11/11 09:40:50;;;;;;;3.07;1.53;;;;;;;16.16;56.65;96405.31;5112389;28;20430;-55
2022/11/11 09:43:29;;;;;;;1.43;1.33;;;;;;;16.48;55.04;96443.88;5112476;28;20430;-55
2022/11/11 09:46:15;;;;;;;7.43;1.73;;;;;;;16.52;55.75;96434.22;5111913;28;20436;-55
2022/11/11 09:49:04;;;;;;;4.90;0.80;;;;;;;16.90;54.75;96421.09;5112022;28;20422;-55
2022/11/11 09:51:42;;;;;;;5.60;1.47;;;;;;;16.97;54.07;96427.72;5110076;28;20499;-55
2022/11/11 09:54:18;;;;;;;23.77;5.37;;;;;;;16.58;55.29;96410.09;5112022;28;20431;-56
2022/11/11 09:56:50;;;;;;;6.23;2.93;;;;;;;16.23;56.18;96377.16;5111988;28;20431;-56
2022/11/11 09:59:25;;;;;;;1.73;0.93;;;;;;;16.57;56.45;96424.56;5112219;28;20461;-56
2022/11/11 10:01:56;;;;;;;4.20;1.57;;;;;;;16.68;65.03;96420.72;5112151;28;20756;-58
2022/11/11 10:04:31;;;;;;;5.33;2.20;;;;;;;16.03;57.01;96417.41;5111947;28;20435;-61
2022/11/11 10:07:06;;;;;;;1.37;1.33;;;;;;;16.22;56.86;96406.84;5111843;28;20425;-60
2022/11/11 10:09:40;;;;;;;7.00;2.00;;;;;;;16.40;56.68;96414.22;5111800;28;20424;-60
2022/11/11 10:12:12;;;;;;;2.07;1.97;;;;;;;16.40;57.11;96409.66;5111526;28;20462;-59
2022/11/11 10:14:49;;;;;;;2.90;1.50;;;;;;;16.07;56.22;96405.06;5111692;28;20428;-60
2022/11/11 10:17:31;;;;;;;2.20;2.00;;;;;;;15.89;57.86;96403.03;5111470;28;20439;-60
2022/11/11 10:20:07;;;;;;;2.27;2.07;;;;;;;16.19;57.83;96397.50;5111459;28;20431;-59
2022/11/11 10:22:38;;;;;;;0.90;0.90;;;;;;;16.96;56.80;96399.31;5111843;28;20427;-60
2022/11/11 10:25:20;;;;;;;0.90;0.70;;;;;;;17.03;55.18;96362.28;5111558;28;20419;-60
2022/11/11 10:27:52;;;;;;;1.83;1.03;;;;;;;16.71;55.75;96388.84;5111417;28;20470;-60
2022/11/11 10:30:25;;;;;;;4.10;1.13;;;;;;;17.17;55.95;96405.28;5110943;28;20423;-60
2022/11/11 10:33:02;;;;;;;1.27;1.27;;;;;;;17.59;55.54;96400.00;5111525;28;20466;-60
2022/11/11 10:35:32;;;;;;;2.23;2.13;;;;;;;18.04;54.99;96401.25;5111435;28;20422;-61
2022/11/11 10:38:17;;;;;;;2.17;2.00;;;;;;;17.77;54.32;96396.53;5111773;28;20808;-61
2022/11/11 10:40:49;;;;;;;3.13;2.93;;;;;;;17.58;54.04;96389.56;5111079;28;20423;-60
2022/11/11 10:43:23;;;;;;;3.60;2.80;;;;;;;17.98;53.87;96382.88;5110476;28;20419;-60
2022/11/11 10:46:05;;;;;;;1.20;1.10;;;;;;;17.94;54.73;96384.50;5111440;28;20427;-60
2022/11/11 10:48:44;;;;;;;2.87;1.23;;;;;;;18.01;55.45;96380.38;5111517;28;20519;-61
2022/11/11 10:51:15;;;;;;;1.40;1.13;;;;;;;18.85;54.33;96371.28;5114713;28;20427;-58
2022/11/11 10:53:53;;;;;;;1.57;1.47;;;;;;;19.96;52.65;96358.34;5115018;28;20459;-57
2022/11/11 10:56:28;;;;;;;1.50;1.40;;;;;;;20.60;50.09;96354.44;5115568;27;20507;-57
2022/11/11 10:59:06;;;;;;;2.07;1.97;;;;;;;21.58;47.30;96346.19;5114951;28;20423;-55
2022/11/11 11:01:40;;;;;;;2.63;2.43;;;;;;;21.60;47.08;96344.78;5115150;28;20880;-55
2022/11/11 11:04:16;;;;;;;12.93;1.23;;;;;;;21.85;46.47;96262.25;5115290;28;20442;-55
2022/11/11 11:06:48;;;;;;;2.90;2.67;;;;;;;23.00;44.80;96330.59;5115304;27;20446;-54
2022/11/11 11:09:19;;;;;;;1.50;1.40;;;;;;;;;;5114915;28;20424;-54
2022/11/11 11:11:52;;;;;;;2.43;2.23;;;;;;;23.73;42.96;96312.31;5114799;28;20450;-53
2022/11/11 11:14:25;;;;;;;1.67;1.00;;;;;;;23.54;43.47;96304.63;5114901;28;20419;-54
2022/11/11 11:16:59;;;;;;;2.50;1.53;;;;;;;24.26;41.84;96298.06;5114953;28;20423;-53
2022/11/11 11:19:28;;;;;;;1.73;1.63;;;;;;;24.27;41.13;96245.44;5114584;28;20432;-53
2022/11/11 11:21:59;;;;;;;4.43;2.17;;;;;;;23.46;41.55;96281.09;5114466;28;20925;-53
2022/11/11 11:24:28;;;;;;;1.93;1.70;;;;;;;23.89;41.19;96287.00;5114638;28;20432;-53
2022/11/11 11:26:59;;;;;;;1.80;1.70;;;;;;;23.93;40.80;96285.22;5114412;28;20506;-54
2022/11/11 11:29:31;;;;;;;2.07;1.97;;;;;;;23.90;41.05;96288.63;5114701;28;20428;-55
2022/11/11 11:32:15;;;;;;;7.63;2.80;;;;;;;24.29;40.04;96278.41;5114206;28;20443;-54
2022/11/11 11:34:54;;;;;;;2.07;1.97;;;;;;;24.97;39.01;96269.56;5114678;28;20424;-54
2022/11/11 11:37:24;;;;;;;1.90;1.70;;;;;;;25.17;37.86;96189.22;5114122;28;20428;-54
2022/11/11 11:40:00;;;;;;;1.53;1.43;;;;;;;25.06;37.68;96190.81;5114359;28;20431;-54
2022/11/11 11:42:38;;;;;;;1.47;1.37;;;;;;;25.50;37.18;96265.88;5114207;28;20838;-54
2022/11/11 11:45:31;;;;;;;0.97;0.60;;;;;;;26.71;36.13;96237.50;5114239;28;20428;-54
2022/11/11 11:48:24;;;;;;;3.93;1.07;;;;;;;27.49;34.67;96227.41;5099173;28;20436;-54
2022/11/11 11:51:09;;;;;;;1.63;0.97;;;;;;;26.78;35.05;96241.22;5113842;28;20431;-54
2022/11/11 11:53:47;;;;;;;1.77;1.67;;;;;;;25.67;35.95;96245.84;5113759;27;20810;-54
2022/11/11 11:56:21;;;;;;;1.20;1.03;;;;;;;24.60;37.22;96248.94;5114050;28;20428;-55
2022/11/11 11:59:01;;;;;;;1.73;1.50;;;;;;;23.61;38.91;96231.81;5113852;28;20428;-55
2022/11/11 12:01:40;;;;;;;1.77;1.50;;;;;;;23.19;39.73;96146.31;5112955;28;20430;-55
2022/11/11 12:04:49;;;;;;;1.93;1.10;;;;;;;24.23;38.16;96222.88;5112997;28;20420;-54
2022/11/11 12:07:31;;;;;;;1.37;1.27;;;;;;;25.70;36.83;96179.97;5113371;28;20439;-54
2022/11/11 12:10:09;;;;;;;1.47;1.30;;;;;;;26.99;34.83;96227.34;5112634;28;20424;-54
2022/11/11 12:12:48;;;;;;;2.93;1.63;;;;;;;25.25;37.14;96227.09;5113234;28;20997;-54
2022/11/11 12:15:32;;;;;;;1.00;1.00;;;;;;;24.74;37.87;96214.19;5113480;28;20419;-55
2022/11/11 12:18:22;;;;;;;0.60;0.50;;;;;;;24.48;38.24;96219.91;5113005;27;20434;-56
2022/11/11 12:20:59;;;;;;;1.37;0.97;;;;;;;24.23;39.40;96225.56;5113652;28;20443;-56
2022/11/11 12:23:47;;;;;;;0.67;0.67;;;;;;;24.23;38.45;96191.16;5113887;28;20424;-56
2022/11/11 12:26:22;;;;;;;1.37;1.37;;;;;;;24.64;38.24;96214.63;5112665;28;20470;-55
2022/11/11 12:29:28;;;;;;;1.07;1.07;;;;;;;25.20;36.92;96213.75;5113549;28;20428;-55
2022/11/11 12:32:27;;;;;;;0.93;0.93;;;;;;;27.03;35.28;96207.25;5112992;28;20442;-54
2022/11/11 12:35:21;;;;;;;0.97;0.93;;;;;;;26.81;34.94;96204.38;5113638;28;20424;-54
2022/11/11 12:38:09;;;;;;;3.70;0.87;;;;;;;25.68;35.30;96202.03;5112560;28;20435;-54
2022/11/11 12:40:55;;;;;;;1.50;0.90;;;;;;;25.57;35.96;96206.38;5113368;28;20506;-55
2022/11/11 12:43:30;;;;;;;1.10;0.97;;;;;;;24.73;35.90;96209.88;5113077;28;20432;-56
2022/11/11 12:46:11;;;;;;;1.73;0.70;;;;;;;24.58;36.61;96210.53;5113085;28;20427;-56
2022/11/11 12:48:52;;;;;;;0.87;0.87;;;;;;;24.54;37.02;96212.34;5113362;28;20428;-56
2022/11/11 12:51:34;;;;;;;0.80;0.80;;;;;;;24.24;37.40;96213.59;5112798;28;20432;-56
2022/11/11 12:54:17;;;;;;;0.70;0.70;;;;;;;23.30;38.14;96215.91;5112944;28;20464;-55
2022/11/11 12:56:52;;;;;;;2.63;0.40;;;;;;;22.00;39.46;96129.50;5111969;28;20436;-56
2022/11/11 12:59:29;;;;;;;0.60;0.60;;;;;;;21.82;40.75;96208.91;5113117;28;20434;-56
2022/11/11 13:02:12;;;;;;;0.70;0.63;;;;;;;21.66;41.52;96218.56;5112683;28;20439;-57
2022/11/11 13:04:58;;;;;;;0.60;0.50;;;;;;;21.56;42.33;96221.59;5112642;28;21072;-56
2022/11/11 13:07:52;;;;;;;0.93;0.80;;;;;;;21.06;42.83;96211.22;5112374;28;20431;-56
2022/11/11 13:10:33;;;;;;;0.70;0.60;;;;;;;20.07;44.62;96219.75;5112259;28;20451;-56
2022/11/11 13:13:19;;;;;;;0.70;0.60;;;;;;;20.30;44.60;96234.00;5112282;28;20419;-55
2022/11/11 13:15:48;;;;;;;0.40;0.30;;;;;;;20.48;44.40;96224.94;5112316;28;20943;-55